Time;durP1;ratioP1;P1;durP2;ratioP2;P2;SDS_P1;SDS_P2;PMS_P1;PMS_P2;Temp;Humidity;BMP_temperature;BMP_pressure;BME280_temperature;BME280_humidity;BME280_pressure;Samples;Min_cycle;Max_cycle;Signal;HPM_P1;HPM_P2
2024/01/20 00:02:17;;;;;;;;;;;11.80;57.60;;;;;;6246786;23;20327;-69
2024/01/20 00:04:43;;;;;;;;;;;12.00;57.80;;;;;;6246779;23;19904;-70
2024/01/20 00:07:09;;;;;;;;;;;12.00;57.80;;;;;;6246869;23;19910;-70
2024/01/20 00:09:35;;;;;;;;;;;11.80;57.70;;;;;;6246760;23;19904;-70
2024/01/20 00:12:01;;;;;;;;;;;11.80;57.60;;;;;;6246575;23;19950;-70
2024/01/20 00:14:27;;;;;;;;;;;11.80;57.60;;;;;;6246718;22;19904;-70
2024/01/20 00:16:54;;;;;;;;;;;11.80;57.70;;;;;;6246629;23;20336;-70
2024/01/20 00:19:20;;;;;;;;;;;11.90;57.60;;;;;;6246557;23;20231;-70
2024/01/20 00:21:46;;;;;;;;;;;11.90;57.60;;;;;;6246080;23;19904;-70
2024/01/20 00:24:11;;;;;;;;;;;11.80;57.60;;;;;;6246514;23;19904;-70
2024/01/20 00:26:37;;;;;;;;;;;11.80;57.60;;;;;;6246545;23;19911;-70
2024/01/20 00:29:03;;;;;;;;;;;11.80;57.60;;;;;;6246584;23;19937;-70
2024/01/20 00:31:28;;;;;;;;;;;11.90;57.70;;;;;;6245819;23;19903;-70
2024/01/20 00:33:54;;;;;;;;;;;11.80;57.50;;;;;;6246305;23;19930;-70
2024/01/20 00:36:19;;;;;;;;;;;11.80;57.50;;;;;;6245473;23;19915;-70
2024/01/20 00:38:45;;;;;;;;;;;11.90;57.30;;;;;;6243977;23;19904;-70
2024/01/20 00:41:11;;;;;;;;;;;11.80;57.40;;;;;;6246277;23;20258;-70
2024/01/20 00:43:36;;;;;;;;;;;11.90;57.30;;;;;;6245889;23;19904;-70
2024/01/20 00:46:02;;;;;;;;;;;11.80;57.40;;;;;;6245468;22;19942;-70
2024/01/20 00:48:27;;;;;;;;;;;11.90;57.20;;;;;;6245475;23;20307;-70
2024/01/20 00:50:53;;;;;;;;;;;11.90;57.30;;;;;;6245568;23;19962;-70
2024/01/20 00:53:18;;;;;;;;;;;11.90;56.40;;;;;;6243871;23;19903;-70
2024/01/20 00:55:44;;;;;;;;;;;11.90;57.10;;;;;;6245395;23;20353;-70
2024/01/20 00:58:10;;;;;;;;;;;11.90;57.30;;;;;;6245373;23;19918;-70
2024/01/20 01:00:35;;;;;;;;;;;12.00;57.00;;;;;;6245470;23;19910;-70
2024/01/20 01:03:01;;;;;;;;;;;12.00;57.30;;;;;;6245947;23;20420;-70
2024/01/20 01:05:27;;;;;;;;;;;12.00;57.20;;;;;;6245280;23;19931;-70
2024/01/20 01:07:52;;;;;;;;;;;12.00;57.20;;;;;;6245293;23;19957;-70
2024/01/20 01:10:18;;;;;;;;;;;12.00;57.40;;;;;;6245328;23;19904;-70
2024/01/20 01:12:44;;;;;;;;;;;12.00;56.50;;;;;;6245868;23;19907;-70
2024/01/20 01:15:10;;;;;;;;;;;12.00;57.10;;;;;;6246020;23;20277;-70
2024/01/20 01:17:36;;;;;;;;;;;12.10;57.00;;;;;;6245353;23;19911;-70
2024/01/20 01:20:03;;;;;;;;;;;12.00;56.90;;;;;;6245615;23;19910;-70
2024/01/20 01:22:28;;;;;;;;;;;11.90;57.10;;;;;;6245355;23;19904;-70
2024/01/20 01:24:54;;;;;;;;;;;12.10;57.10;;;;;;6245427;23;19911;-70
2024/01/20 01:27:21;;;;;;;;;;;12.00;57.10;;;;;;6245437;23;19911;-70
2024/01/20 01:29:47;;;;;;;;;;;12.00;56.70;;;;;;6243804;23;19904;-70
2024/01/20 01:32:13;;;;;;;;;;;12.00;56.90;;;;;;6246332;23;19975;-70
2024/01/20 01:34:38;;;;;;;;;;;12.00;57.20;;;;;;6245132;23;19954;-70
2024/01/20 01:37:04;;;;;;;;;;;12.00;57.10;;;;;;6244999;23;19915;-70
2024/01/20 01:39:30;;;;;;;;;;;12.00;56.80;;;;;;6245526;23;19987;-70
2024/01/20 01:41:56;;;;;;;;;;;11.90;57.10;;;;;;6245705;23;19908;-70
2024/01/20 01:44:21;;;;;;;;;;;12.50;57.60;;;;;;6245195;22;19904;-71
2024/01/20 01:46:48;;;;;;;;;;;11.90;57.60;;;;;;6245497;23;19992;-71
2024/01/20 01:49:14;;;;;;;;;;;11.90;57.70;;;;;;6245653;23;19908;-70
2024/01/20 01:51:39;;;;;;;;;;;11.80;57.50;;;;;;6244976;23;19904;-71
2024/01/20 01:54:07;;;;;;;;;;;11.70;57.70;;;;;;6245673;23;19903;-70
2024/01/20 01:56:33;;;;;;;;;;;12.00;57.90;;;;;;6245284;23;20392;-70
2024/01/20 01:58:59;;;;;;;;;;;11.90;57.80;;;;;;6245127;23;19910;-70
2024/01/20 02:01:25;;;;;;;;;;;11.90;57.90;;;;;;6245551;23;19904;-70
2024/01/20 02:03:51;;;;;;;;;;;11.90;58.10;;;;;;6245223;23;19907;-70
2024/01/20 02:06:17;;;;;;;;;;;12.10;58.10;;;;;;6244956;23;19910;-70
2024/01/20 02:08:42;;;;;;;;;;;11.90;58.00;;;;;;6245538;23;20243;-70
2024/01/20 02:11:08;;;;;;;;;;;12.00;58.10;;;;;;6244749;23;19903;-70
2024/01/20 02:13:34;;;;;;;;;;;11.80;57.60;;;;;;6244991;23;19907;-70
2024/01/20 02:16:00;;;;;;;;;;;11.80;57.90;;;;;;6244784;23;19904;-70
2024/01/20 02:18:26;;;;;;;;;;;11.90;58.00;;;;;;6245202;23;19950;-75
2024/01/20 02:20:51;;;;;;;;;;;11.80;58.10;;;;;;6244830;23;19965;-75
2024/01/20 02:23:17;;;;;;;;;;;11.70;57.80;;;;;;6244858;23;19938;-75
2024/01/20 02:25:42;;;;;;;;;;;11.80;58.00;;;;;;6244722;23;19942;-75
2024/01/20 02:28:08;;;;;;;;;;;11.80;58.00;;;;;;6243858;23;19904;-75
2024/01/20 02:30:34;;;;;;;;;;;11.90;58.00;;;;;;6245708;23;19904;-75
2024/01/20 02:33:00;;;;;;;;;;;11.80;58.00;;;;;;6247442;23;20234;-75
2024/01/20 02:35:26;;;;;;;;;;;11.90;58.00;;;;;;6247002;23;19910;-75
2024/01/20 02:37:52;;;;;;;;;;;11.80;57.60;;;;;;6246754;23;19986;-75
2024/01/20 02:40:18;;;;;;;;;;;11.80;57.90;;;;;;6247029;23;19927;-75
2024/01/20 02:42:44;;;;;;;;;;;11.80;57.40;;;;;;6247135;23;19907;-75
2024/01/20 02:45:09;;;;;;;;;;;11.80;57.50;;;;;;6246952;22;20255;-75
2024/01/20 02:47:35;;;;;;;;;;;11.80;57.50;;;;;;6247834;23;19967;-75
2024/01/20 02:50:01;;;;;;;;;;;11.80;57.90;;;;;;6247344;23;20393;-75
2024/01/20 02:52:27;;;;;;;;;;;11.80;57.60;;;;;;6247105;23;20227;-75
2024/01/20 02:54:53;;;;;;;;;;;11.80;57.90;;;;;;6246839;23;19907;-75
2024/01/20 02:57:19;;;;;;;;;;;11.70;57.90;;;;;;6247111;23;19911;-75
2024/01/20 02:59:45;;;;;;;;;;;11.70;57.80;;;;;;6247212;23;19983;-75
2024/01/20 03:02:11;;;;;;;;;;;11.80;57.80;;;;;;6247148;23;19911;-75
2024/01/20 03:04:37;;;;;;;;;;;11.80;58.00;;;;;;6246749;23;20339;-75
2024/01/20 03:07:04;;;;;;;;;;;11.70;58.10;;;;;;6247022;23;19908;-75
2024/01/20 03:09:30;;;;;;;;;;;11.70;57.60;;;;;;6246941;23;19927;-75
2024/01/20 03:11:56;;;;;;;;;;;11.70;57.80;;;;;;6247000;23;20307;-75
2024/01/20 03:14:21;;;;;;;;;;;11.70;57.70;;;;;;6246615;23;19903;-75
2024/01/20 03:16:47;;;;;;;;;;;11.70;57.30;;;;;;6247064;23;19921;-75
2024/01/20 03:19:13;;;;;;;;;;;11.70;58.00;;;;;;6246668;23;19908;-75
2024/01/20 03:21:40;;;;;;;;;;;11.90;58.00;;;;;;6246889;23;19910;-75
2024/01/20 03:24:06;;;;;;;;;;;11.90;57.90;;;;;;6246931;23;19903;-75
2024/01/20 03:26:31;;;;;;;;;;;11.60;57.50;;;;;;6246917;23;19974;-75
2024/01/20 03:28:57;;;;;;;;;;;11.60;57.60;;;;;;6246507;23;19908;-75
2024/01/20 03:31:24;;;;;;;;;;;11.60;57.60;;;;;;6246626;23;19908;-75
2024/01/20 03:33:50;;;;;;;;;;;11.80;57.50;;;;;;6246881;22;20311;-75
2024/01/20 03:36:16;;;;;;;;;;;11.60;57.70;;;;;;6246371;23;19959;-75
2024/01/20 03:38:42;;;;;;;;;;;11.70;57.30;;;;;;6246731;23;19904;-75
2024/01/20 03:41:07;;;;;;;;;;;11.60;57.60;;;;;;6246325;23;19903;-75
2024/01/20 03:43:33;;;;;;;;;;;11.40;57.40;;;;;;6246148;23;19908;-75
2024/01/20 03:45:58;;;;;;;;;;;11.60;58.20;;;;;;6245939;22;19916;-75
2024/01/20 03:48:23;;;;;;;;;;;11.60;57.60;;;;;;6246181;23;20334;-75
2024/01/20 03:50:49;;;;;;;;;;;11.60;57.60;;;;;;6245999;23;19903;-75
2024/01/20 03:53:14;;;;;;;;;;;11.60;57.40;;;;;;6245970;23;20299;-75
2024/01/20 03:55:40;;;;;;;;;;;11.60;57.40;;;;;;6246043;23;20286;-75
2024/01/20 03:58:05;;;;;;;;;;;11.50;57.40;;;;;;6245981;23;19954;-75
2024/01/20 04:00:31;;;;;;;;;;;11.60;57.30;;;;;;6246251;23;19926;-75
2024/01/20 04:02:57;;;;;;;;;;;11.50;57.40;;;;;;6246589;23;19911;-75
2024/01/20 04:05:22;;;;;;;;;;;11.50;57.50;;;;;;6245992;23;19904;-75
2024/01/20 04:07:48;;;;;;;;;;;11.50;57.50;;;;;;6245962;23;20247;-75
2024/01/20 04:10:14;;;;;;;;;;;11.50;57.40;;;;;;6245928;23;19907;-75
2024/01/20 04:12:40;;;;;;;;;;;11.50;57.30;;;;;;6246727;23;19903;-70
2024/01/20 04:15:05;;;;;;;;;;;11.50;57.30;;;;;;6256021;23;19994;-71
2024/01/20 04:17:31;;;;;;;;;;;11.50;56.10;;;;;;6245604;23;19915;-70
2024/01/20 04:19:56;;;;;;;;;;;11.50;57.20;;;;;;6245718;23;19929;-69
2024/01/20 04:22:22;;;;;;;;;;;11.50;57.30;;;;;;6246435;23;19949;-69
2024/01/20 04:24:47;;;;;;;;;;;11.50;57.30;;;;;;6245881;23;19911;-69
2024/01/20 04:27:13;;;;;;;;;;;11.50;57.20;;;;;;6245664;23;19912;-70
2024/01/20 04:29:38;;;;;;;;;;;11.50;57.10;;;;;;6245575;23;19903;-70
2024/01/20 04:32:04;;;;;;;;;;;11.40;57.20;;;;;;6245566;23;19911;-69
2024/01/20 04:34:29;;;;;;;;;;;11.50;56.50;;;;;;6245521;23;19998;-70
2024/01/20 04:36:55;;;;;;;;;;;11.50;57.40;;;;;;6246131;23;19951;-70
2024/01/20 04:39:21;;;;;;;;;;;11.40;57.10;;;;;;6245730;23;19985;-70
2024/01/20 04:41:47;;;;;;;;;;;11.40;57.50;;;;;;6246260;23;19904;-70
2024/01/20 04:44:13;;;;;;;;;;;11.40;57.20;;;;;;6246111;23;19908;-69
2024/01/20 04:46:39;;;;;;;;;;;11.40;57.70;;;;;;6245585;22;19991;-70
2024/01/20 04:49:05;;;;;;;;;;;11.50;57.60;;;;;;6245680;23;19983;-70
2024/01/20 04:51:31;;;;;;;;;;;11.30;57.50;;;;;;6245387;23;19904;-70
2024/01/20 04:53:57;;;;;;;;;;;11.40;57.60;;;;;;6245626;23;20336;-70
2024/01/20 04:56:22;;;;;;;;;;;11.60;57.60;;;;;;6245559;23;19904;-70
2024/01/20 04:58:49;;;;;;;;;;;11.40;57.60;;;;;;6245645;23;19904;-70
2024/01/20 05:01:15;;;;;;;;;;;11.40;57.30;;;;;;6245558;23;19954;-70
2024/01/20 05:03:40;;;;;;;;;;;11.40;57.90;;;;;;6245392;23;19974;-70
2024/01/20 05:06:06;;;;;;;;;;;11.40;57.70;;;;;;6245224;23;19903;-70
2024/01/20 05:08:31;;;;;;;;;;;11.40;57.60;;;;;;6245242;23;20216;-70
2024/01/20 05:10:57;;;;;;;;;;;11.40;57.50;;;;;;6245778;23;19911;-70
2024/01/20 05:13:22;;;;;;;;;;;11.50;57.60;;;;;;6245281;23;19983;-70
2024/01/20 05:15:48;;;;;;;;;;;11.40;57.90;;;;;;6245123;23;19978;-70
2024/01/20 05:18:13;;;;;;;;;;;11.40;57.50;;;;;;6245075;23;20263;-70
2024/01/20 05:20:39;;;;;;;;;;;11.40;58.00;;;;;;6245354;23;19982;-70
2024/01/20 05:23:04;;;;;;;;;;;11.60;57.80;;;;;;6245343;23;19903;-75
2024/01/20 05:25:30;;;;;;;;;;;11.40;57.90;;;;;;6245171;23;19904;-75
2024/01/20 05:27:55;;;;;;;;;;;11.40;57.70;;;;;;6245739;23;19904;-75
2024/01/20 05:30:21;;;;;;;;;;;11.30;57.80;;;;;;6243468;23;19911;-75
2024/01/20 05:32:47;;;;;;;;;;;11.40;57.80;;;;;;6245047;23;19990;-75
2024/01/20 05:35:12;;;;;;;;;;;11.40;58.00;;;;;;6245054;23;20216;-75
2024/01/20 05:37:38;;;;;;;;;;;11.40;57.90;;;;;;6245453;23;19919;-75
2024/01/20 05:40:04;;;;;;;;;;;11.40;57.40;;;;;;6244935;23;19942;-75
2024/01/20 05:42:30;;;;;;;;;;;11.30;56.40;;;;;;6245192;23;19903;-75
2024/01/20 05:44:55;;;;;;;;;;;11.40;57.60;;;;;;6243312;23;19986;-75
2024/01/20 05:47:21;;;;;;;;;;;11.30;57.40;;;;;;6245292;22;20334;-75
2024/01/20 05:49:47;;;;;;;;;;;11.50;58.00;;;;;;6245419;22;19903;-75
2024/01/20 05:52:13;;;;;;;;;;;11.40;58.30;;;;;;6245160;22;19908;-70
2024/01/20 05:54:39;;;;;;;;;;;11.40;57.80;;;;;;6245134;22;19938;-71
2024/01/20 05:57:05;;;;;;;;;;;11.30;58.20;;;;;;6245442;22;19957;-70
2024/01/20 05:59:31;;;;;;;;;;;11.30;58.40;;;;;;6245150;22;20316;-69
2024/01/20 06:01:57;;;;;;;;;;;11.30;58.30;;;;;;6245095;22;19903;-70
2024/01/20 06:04:23;;;;;;;;;;;11.30;58.80;;;;;;6245485;22;19938;-69
2024/01/20 06:06:49;;;;;;;;;;;11.40;58.60;;;;;;6245136;22;19904;-68
2024/01/20 06:09:15;;;;;;;;;;;11.40;58.30;;;;;;6244879;22;19904;-69
2024/01/20 06:11:41;;;;;;;;;;;11.30;58.70;;;;;;6245123;22;19912;-69
2024/01/20 06:14:07;;;;;;;;;;;11.30;58.40;;;;;;6245249;22;20390;-69
2024/01/20 06:16:36;;;;;;;;;;;11.40;59.00;;;;;;6245324;22;19911;-69
2024/01/20 06:19:02;;;;;;;;;;;11.30;58.30;;;;;;6245348;22;20208;-70
2024/01/20 06:21:28;;;;;;;;;;;11.40;58.90;;;;;;6244964;22;19903;-70
2024/01/20 06:23:53;;;;;;;;;;;11.30;58.70;;;;;;6244761;22;19911;-68
2024/01/20 06:26:19;;;;;;;;;;;11.40;58.90;;;;;;6244703;22;20239;-69
2024/01/20 06:28:44;;;;;;;;;;;11.30;58.90;;;;;;6244668;22;19904;-68
2024/01/20 06:31:20;;;;;;;;;;;11.40;58.80;;;;;;6245263;22;19903;-69
2024/01/20 06:33:47;;;;;;;;;;;11.40;58.80;;;;;;6254757;22;19911;-69
2024/01/20 06:36:13;;;;;;;;;;;11.40;58.40;;;;;;6245286;22;19903;-69
2024/01/20 06:38:39;;;;;;;;;;;11.40;57.90;;;;;;6245092;22;19950;-69
2024/01/20 06:41:05;;;;;;;;;;;11.30;58.30;;;;;;6244848;22;19908;-69
2024/01/20 06:43:30;;;;;;;;;;;11.30;58.20;;;;;;6244640;22;19940;-69
2024/01/20 06:45:56;;;;;;;;;;;11.30;58.20;;;;;;6244281;22;19922;-68
2024/01/20 06:48:22;;;;;;;;;;;11.30;58.00;;;;;;6244439;23;20363;-69
2024/01/20 06:50:47;;;;;;;;;;;11.60;58.40;;;;;;6244356;23;19983;-69
2024/01/20 06:53:13;;;;;;;;;;;11.30;58.00;;;;;;6244389;23;19907;-69
2024/01/20 06:55:38;;;;;;;;;;;11.30;58.10;;;;;;6244487;23;20055;-68
2024/01/20 06:58:04;;;;;;;;;;;11.30;58.10;;;;;;6244526;23;20224;-68
2024/01/20 07:00:29;;;;;;;;;;;11.40;58.20;;;;;;6242896;23;19990;-69
2024/01/20 07:02:58;;;;;;;;;;;11.20;58.00;;;;;;6245686;23;19994;-69
2024/01/20 07:05:23;;;;;;;;;;;11.40;57.60;;;;;;6244477;23;20173;-69
2024/01/20 07:07:49;;;;;;;;;;;11.50;58.00;;;;;;6244467;23;19904;-69
2024/01/20 07:10:14;;;;;;;;;;;11.50;58.40;;;;;;6242921;23;19904;-68
2024/01/20 07:12:40;;;;;;;;;;;11.30;58.20;;;;;;6244491;23;19958;-69
2024/01/20 07:15:05;;;;;;;;;;;11.30;58.10;;;;;;6245261;23;19903;-69
2024/01/20 07:17:31;;;;;;;;;;;11.30;57.00;;;;;;6245157;23;19919;-69
2024/01/20 07:19:58;;;;;;;;;;;11.70;57.80;;;;;;6246163;23;20029;-69
2024/01/20 07:22:23;;;;;;;;;;;11.50;57.80;;;;;;6246675;23;19908;-69
2024/01/20 07:24:49;;;;;;;;;;;11.20;57.50;;;;;;6246176;23;19970;-68
2024/01/20 07:27:14;;;;;;;;;;;11.20;57.50;;;;;;6246149;23;19903;-69
2024/01/20 07:29:41;;;;;;;;;;;11.90;57.70;;;;;;6246202;23;19904;-68
2024/01/20 07:32:06;;;;;;;;;;;11.80;57.80;;;;;;6246609;23;20219;-68
2024/01/20 07:34:32;;;;;;;;;;;11.20;56.50;;;;;;6246168;23;19911;-69
2024/01/20 07:36:57;;;;;;;;;;;11.20;57.50;;;;;;6245979;23;19912;-68
2024/01/20 07:39:23;;;;;;;;;;;11.30;57.00;;;;;;6246076;23;19986;-69
2024/01/20 07:41:48;;;;;;;;;;;11.50;57.60;;;;;;6246079;23;19903;-69
2024/01/20 07:44:14;;;;;;;;;;;11.30;57.40;;;;;;6246145;23;19904;-69
2024/01/20 07:46:39;;;;;;;;;;;11.20;57.30;;;;;;6244426;23;19915;-69
2024/01/20 07:49:05;;;;;;;;;;;11.20;57.40;;;;;;6246739;23;19903;-69
2024/01/20 07:51:30;;;;;;;;;;;11.20;57.60;;;;;;6246712;23;19904;-68
2024/01/20 07:53:56;;;;;;;;;;;11.30;57.50;;;;;;6245956;23;19979;-69
2024/01/20 07:56:21;;;;;;;;;;;11.70;57.60;;;;;;6246171;22;19904;-68
2024/01/20 07:58:47;;;;;;;;;;;11.20;57.30;;;;;;6245982;23;19910;-69
2024/01/20 08:01:12;;;;;;;;;;;11.20;57.30;;;;;;6246336;23;19927;-69
2024/01/20 08:03:38;;;;;;;;;;;11.20;57.10;;;;;;6245798;23;20338;-69
2024/01/20 08:06:03;;;;;;;;;;;11.20;57.20;;;;;;6244214;23;19911;-68
2024/01/20 08:08:29;;;;;;;;;;;11.10;56.20;;;;;;6245738;23;19910;-69
2024/01/20 08:10:54;;;;;;;;;;;11.10;57.30;;;;;;6245709;23;19911;-69
2024/01/20 08:13:20;;;;;;;;;;;11.10;57.20;;;;;;6244245;23;20323;-69
2024/01/20 08:15:45;;;;;;;;;;;11.50;57.40;;;;;;6245731;23;19904;-69
2024/01/20 08:18:11;;;;;;;;;;;11.10;57.30;;;;;;6246253;23;19918;-69
2024/01/20 08:20:37;;;;;;;;;;;11.10;57.30;;;;;;6246343;23;19908;-69
2024/01/20 08:23:03;;;;;;;;;;;11.20;57.50;;;;;;6245698;23;19911;-69
2024/01/20 08:25:28;;;;;;;;;;;11.10;56.60;;;;;;6246330;23;19911;-68
2024/01/20 08:27:54;;;;;;;;;;;11.00;57.50;;;;;;6245445;23;19904;-68
2024/01/20 08:30:19;;;;;;;;;;;11.00;57.20;;;;;;6246043;23;19903;-68
2024/01/20 08:32:44;;;;;;;;;;;11.00;57.40;;;;;;6245626;23;19996;-69
2024/01/20 08:35:11;;;;;;;;;;;11.60;57.50;;;;;;6245497;23;19904;-69
2024/01/20 08:37:36;;;;;;;;;;;11.00;57.10;;;;;;6245724;23;19998;-69
2024/01/20 08:40:02;;;;;;;;;;;11.00;57.20;;;;;;6245428;23;19904;-69
2024/01/20 08:42:28;;;;;;;;;;;11.00;56.90;;;;;;6245573;23;19934;-69
2024/01/20 08:44:54;;;;;;;;;;;10.90;57.30;;;;;;6245676;22;19915;-69
2024/01/20 08:47:19;;;;;;;;;;;11.00;57.40;;;;;;6245435;23;19953;-69
2024/01/20 08:49:47;;;;;;;;;;;10.90;57.40;;;;;;6245620;23;19911;-68
2024/01/20 08:52:13;;;;;;;;;;;11.00;57.40;;;;;;6245560;23;19904;-69
2024/01/20 08:54:38;;;;;;;;;;;10.90;57.10;;;;;;6245493;23;19978;-69
2024/01/20 08:57:04;;;;;;;;;;;10.90;57.50;;;;;;6245965;23;20192;-69
2024/01/20 08:59:29;;;;;;;;;;;11.00;56.90;;;;;;6245387;23;19950;-68
2024/01/20 09:01:55;;;;;;;;;;;10.90;57.00;;;;;;6245378;23;19904;-67
2024/01/20 09:04:20;;;;;;;;;;;11.20;57.30;;;;;;6245269;23;19904;-68
2024/01/20 09:06:46;;;;;;;;;;;10.90;57.60;;;;;;6245358;23;19910;-69
2024/01/20 09:09:12;;;;;;;;;;;11.20;57.40;;;;;;6245445;23;19908;-72
2024/01/20 09:11:38;;;;;;;;;;;11.00;57.40;;;;;;6245329;23;19974;-72
2024/01/20 09:14:04;;;;;;;;;;;11.30;57.50;;;;;;6245406;23;20075;-72
2024/01/20 09:16:30;;;;;;;;;;;11.00;57.30;;;;;;6246807;23;19904;-72
2024/01/20 09:18:55;;;;;;;;;;;10.90;57.30;;;;;;6245633;23;19911;-72
2024/01/20 09:21:21;;;;;;;;;;;11.10;57.70;;;;;;6245103;23;19935;-69
2024/01/20 09:23:46;;;;;;;;;;;11.40;57.50;;;;;;6245080;23;19904;-74
2024/01/20 09:26:12;;;;;;;;;;;10.70;57.20;;;;;;6245868;23;19904;-72
2024/01/20 09:28:37;;;;;;;;;;;10.80;57.60;;;;;;6245124;23;20243;-70
2024/01/20 09:31:03;;;;;;;;;;;10.70;57.30;;;;;;6244945;23;19908;-73
2024/01/20 09:33:29;;;;;;;;;;;10.80;56.90;;;;;;6244972;23;19904;-72
2024/01/20 09:35:54;;;;;;;;;;;10.80;57.50;;;;;;6243339;23;19932;-73
2024/01/20 09:38:20;;;;;;;;;;;10.80;57.60;;;;;;6245510;23;20014;-72
2024/01/20 09:40:45;;;;;;;;;;;10.80;57.90;;;;;;6244995;23;19918;-72
2024/01/20 09:43:12;;;;;;;;;;;11.20;57.80;;;;;;6245845;23;20017;-76
2024/01/20 09:45:40;;;;;;;;;;;10.80;57.80;;;;;;6245611;22;19959;-73
2024/01/20 09:48:06;;;;;;;;;;;10.80;57.40;;;;;;6245631;23;19986;-76
2024/01/20 09:50:32;;;;;;;;;;;11.00;57.30;;;;;;6243761;23;20343;-73
2024/01/20 09:52:59;;;;;;;;;;;10.70;57.40;;;;;;6245078;23;19958;-74
2024/01/20 09:55:26;;;;;;;;;;;10.80;57.70;;;;;;6245051;23;19939;-72
2024/01/20 09:57:51;;;;;;;;;;;10.70;57.50;;;;;;6244924;23;20250;-74
2024/01/20 10:00:18;;;;;;;;;;;10.80;57.60;;;;;;6244909;23;19903;-75
2024/01/20 10:02:44;;;;;;;;;;;10.80;56.90;;;;;;6244809;23;19939;-75
2024/01/20 10:05:10;;;;;;;;;;;10.70;57.50;;;;;;6244876;23;19904;-75
2024/01/20 10:07:36;;;;;;;;;;;10.70;57.20;;;;;;6244829;23;19979;-76
2024/01/20 10:10:02;;;;;;;;;;;11.40;57.70;;;;;;6245004;23;19934;-74
2024/01/20 10:12:28;;;;;;;;;;;10.50;57.00;;;;;;6245454;23;19904;-74
2024/01/20 10:14:54;;;;;;;;;;;10.60;57.20;;;;;;6244880;23;19904;-75
2024/01/20 10:17:20;;;;;;;;;;;10.70;57.00;;;;;;6245394;23;19912;-75
2024/01/20 10:19:45;;;;;;;;;;;11.00;57.40;;;;;;6244872;23;19904;-73
2024/01/20 10:22:11;;;;;;;;;;;10.60;57.60;;;;;;6245373;23;19903;-74
2024/01/20 10:24:47;;;;;;;;;;;11.00;57.10;;;;;;6244848;23;20011;-75
2024/01/20 10:27:15;;;;;;;;;;;10.60;53.00;;;;;;6245456;23;19904;-74
2024/01/20 10:29:41;;;;;;;;;;;10.60;57.60;;;;;;6245346;23;19918;-76
2024/01/20 10:32:08;;;;;;;;;;;10.60;57.30;;;;;;6246119;23;19982;-74
2024/01/20 10:34:33;;;;;;;;;;;10.60;57.50;;;;;;6244811;23;20343;-74
2024/01/20 10:37:01;;;;;;;;;;;11.20;57.80;;;;;;6245435;23;19991;-73
2024/01/20 10:39:27;;;;;;;;;;;10.60;57.00;;;;;;6245173;23;20258;-73
2024/01/20 10:41:53;;;;;;;;;;;10.70;57.50;;;;;;6244898;23;19911;-73
2024/01/20 10:44:20;;;;;;;;;;;10.60;57.30;;;;;;6244811;23;20331;-75
2024/01/20 10:46:51;;;;;;;;;;;10.80;57.60;;;;;;6244739;23;19962;-74
2024/01/20 10:49:19;;;;;;;;;;;11.20;57.80;;;;;;6255290;23;20220;-76
2024/01/20 10:51:46;;;;;;;;;;;10.60;57.60;;;;;;6245347;23;20258;-75
2024/01/20 10:54:12;;;;;;;;;;;10.70;57.70;;;;;;6247266;23;19904;-75
2024/01/20 10:56:39;;;;;;;;;;;11.20;58.00;;;;;;6246738;23;20349;-73
2024/01/20 10:59:09;;;;;;;;;;;11.00;57.80;;;;;;6247182;23;19903;-73
2024/01/20 11:01:35;;;;;;;;;;;10.60;57.70;;;;;;6247080;23;19904;-75
2024/01/20 11:04:01;;;;;;;;;;;10.60;57.70;;;;;;6246948;23;19903;-74
2024/01/20 11:06:29;;;;;;;;;;;10.60;57.40;;;;;;6247252;23;19910;-74
2024/01/20 11:08:55;;;;;;;;;;;10.60;57.50;;;;;;6247235;23;20242;-74
2024/01/20 11:11:25;;;;;;;;;;;10.70;57.40;;;;;;6246608;23;19904;-74
2024/01/20 11:13:52;;;;;;;;;;;11.00;57.60;;;;;;6257180;23;19907;-74
2024/01/20 11:16:18;;;;;;;;;;;10.70;57.40;;;;;;6219743;23;20303;-74
2024/01/20 11:18:45;;;;;;;;;;;10.70;57.60;;;;;;6247413;23;19915;-74
2024/01/20 11:21:13;;;;;;;;;;;10.70;57.30;;;;;;6247207;23;19904;-74
2024/01/20 11:23:39;;;;;;;;;;;10.70;56.90;;;;;;6246477;23;19904;-74
2024/01/20 11:26:11;;;;;;;;;;;10.80;57.40;;;;;;6246597;23;19983;-75
2024/01/20 11:28:37;;;;;;;;;;;10.80;53.10;;;;;;6256697;23;19914;-70
2024/01/20 11:31:03;;;;;;;;;;;10.70;57.50;;;;;;6247166;23;19968;-70
2024/01/20 11:33:29;;;;;;;;;;;10.70;57.00;;;;;;6246388;23;19932;-69
2024/01/20 11:35:55;;;;;;;;;;;10.80;57.60;;;;;;6246898;23;19911;-73
2024/01/20 11:38:21;;;;;;;;;;;10.80;57.30;;;;;;6246505;23;19942;-69
2024/01/20 11:41:00;;;;;;;;;;;10.70;57.60;;;;;;6246609;23;19982;-69
2024/01/20 11:43:26;;;;;;;;;;;10.80;53.60;;;;;;6246980;23;19904;-69
2024/01/20 11:45:51;;;;;;;;;;;10.90;57.90;;;;;;6246211;22;20273;-68
2024/01/20 11:48:18;;;;;;;;;;;10.80;57.90;;;;;;6246362;23;19904;-69
2024/01/20 11:50:43;;;;;;;;;;;11.10;58.10;;;;;;6246586;23;20355;-69
2024/01/20 11:53:09;;;;;;;;;;;10.70;58.00;;;;;;6246881;23;19943;-69
2024/01/20 11:55:35;;;;;;;;;;;10.80;57.60;;;;;;6246887;23;20319;-69
2024/01/20 11:58:01;;;;;;;;;;;11.30;58.10;;;;;;6246077;23;19915;-70
2024/01/20 12:00:27;;;;;;;;;;;10.80;57.80;;;;;;6246290;23;19911;-69
2024/01/20 12:02:52;;;;;;;;;;;10.80;58.00;;;;;;6245891;23;20251;-69
2024/01/20 12:05:18;;;;;;;;;;;10.80;57.90;;;;;;6246428;23;20315;-69
2024/01/20 12:07:44;;;;;;;;;;;10.80;57.80;;;;;;6246229;23;19945;-71
2024/01/20 12:10:09;;;;;;;;;;;10.90;56.60;;;;;;6246343;23;19930;-70
2024/01/20 12:12:35;;;;;;;;;;;11.00;57.80;;;;;;6246179;23;20033;-70
2024/01/20 12:15:05;;;;;;;;;;;11.00;57.50;;;;;;6246090;23;20338;-70
2024/01/20 12:17:31;;;;;;;;;;;11.30;57.50;;;;;;6256176;23;19954;-70
2024/01/20 12:19:56;;;;;;;;;;;11.10;57.10;;;;;;6246105;23;20397;-70
2024/01/20 12:22:22;;;;;;;;;;;11.10;56.80;;;;;;6246514;23;19903;-70
2024/01/20 12:24:48;;;;;;;;;;;11.30;56.90;;;;;;6244342;23;19962;-70
2024/01/20 12:27:14;;;;;;;;;;;11.40;56.60;;;;;;6246012;23;20250;-70
2024/01/20 12:29:40;;;;;;;;;;;11.60;56.60;;;;;;6246585;23;19904;-71
2024/01/20 12:32:06;;;;;;;;;;;11.50;56.30;;;;;;6245919;23;19904;-70
2024/01/20 12:34:31;;;;;;;;;;;11.50;55.10;;;;;;6256699;23;20270;-70
2024/01/20 12:36:57;;;;;;;;;;;11.60;56.20;;;;;;6245922;23;19915;-70
2024/01/20 12:39:23;;;;;;;;;;;11.70;55.60;;;;;;6245754;23;19907;-69
2024/01/20 12:41:49;;;;;;;;;;;12.00;56.20;;;;;;6245862;23;19926;-70
2024/01/20 12:44:16;;;;;;;;;;;11.80;56.10;;;;;;6246436;23;19919;-69
2024/01/20 12:46:41;;;;;;;;;;;11.90;56.20;;;;;;6245689;22;19915;-70
2024/01/20 12:49:07;;;;;;;;;;;11.80;56.20;;;;;;6245744;23;20314;-69
2024/01/20 12:51:33;;;;;;;;;;;11.80;56.20;;;;;;6245735;23;19950;-69
2024/01/20 12:53:58;;;;;;;;;;;11.80;56.30;;;;;;6245675;23;20243;-70
2024/01/20 12:56:24;;;;;;;;;;;11.90;56.20;;;;;;6245411;23;19904;-69
2024/01/20 12:58:49;;;;;;;;;;;11.80;56.20;;;;;;6245678;23;20337;-69
2024/01/20 13:01:16;;;;;;;;;;;11.90;56.20;;;;;;6246180;23;19904;-69
2024/01/20 13:03:42;;;;;;;;;;;11.90;56.10;;;;;;6245636;23;20231;-69
2024/01/20 13:06:08;;;;;;;;;;;12.10;56.20;;;;;;6245577;23;19983;-70
2024/01/20 13:08:33;;;;;;;;;;;12.10;56.80;;;;;;6245560;23;19908;-69
2024/01/20 13:10:59;;;;;;;;;;;12.10;56.40;;;;;;6245534;23;20319;-69
2024/01/20 13:13:24;;;;;;;;;;;12.10;56.10;;;;;;6245506;23;19949;-69
2024/01/20 13:15:51;;;;;;;;;;;12.10;56.30;;;;;;6245531;23;19956;-69
2024/01/20 13:18:16;;;;;;;;;;;12.10;56.30;;;;;;6245972;23;19938;-69
2024/01/20 13:20:43;;;;;;;;;;;12.00;56.40;;;;;;6245696;23;19904;-69
2024/01/20 13:23:08;;;;;;;;;;;12.10;56.80;;;;;;6246045;23;19962;-69
2024/01/20 13:25:34;;;;;;;;;;;12.00;56.90;;;;;;6245475;23;20391;-69
2024/01/20 13:28:00;;;;;;;;;;;12.00;57.00;;;;;;6245439;23;19907;-69
2024/01/20 13:30:26;;;;;;;;;;;12.00;56.80;;;;;;6245971;23;20242;-69
2024/01/20 13:32:51;;;;;;;;;;;12.40;56.80;;;;;;6245355;23;19910;-69
2024/01/20 13:35:17;;;;;;;;;;;12.10;56.60;;;;;;6245318;23;19933;-69
2024/01/20 13:37:42;;;;;;;;;;;12.20;56.30;;;;;;6243493;23;20032;-69
2024/01/20 13:40:09;;;;;;;;;;;12.20;56.70;;;;;;6244956;23;19904;-69
2024/01/20 13:42:35;;;;;;;;;;;12.20;55.60;;;;;;6245111;23;19911;-69
2024/01/20 13:45:01;;;;;;;;;;;12.20;56.90;;;;;;6245047;22;19962;-69
2024/01/20 13:47:26;;;;;;;;;;;12.20;56.90;;;;;;6243249;23;20307;-69
2024/01/20 13:49:52;;;;;;;;;;;12.20;57.10;;;;;;6245223;23;19910;-69
2024/01/20 13:52:17;;;;;;;;;;;12.20;57.00;;;;;;6245023;23;19927;-70
2024/01/20 13:54:42;;;;;;;;;;;12.20;57.10;;;;;;6245184;23;19903;-70
2024/01/20 13:57:08;;;;;;;;;;;12.30;57.00;;;;;;6244962;23;20350;-70
2024/01/20 13:59:34;;;;;;;;;;;12.30;57.10;;;;;;6245246;23;19939;-69
2024/01/20 14:02:00;;;;;;;;;;;12.30;56.90;;;;;;6243504;23;19903;-69
2024/01/20 14:04:25;;;;;;;;;;;12.40;57.00;;;;;;6245141;23;19931;-69
2024/01/20 14:06:51;;;;;;;;;;;12.40;56.90;;;;;;6245141;23;19958;-70
2024/01/20 14:09:16;;;;;;;;;;;12.40;56.90;;;;;;6245165;23;19926;-70